createdAt,value
2018-04-15T00:01:25.900Z,70.82
2018-04-15T00:03:54.453Z,70.75
2018-04-15T00:06:23.131Z,70.80
2018-04-15T00:08:51.874Z,70.86
2018-04-15T00:11:20.256Z,70.86
2018-04-15T00:13:50.489Z,71.00
2018-04-15T00:16:19.041Z,71.11
2018-04-15T00:18:47.444Z,71.34
2018-04-15T00:21:15.924Z,71.42
2018-04-15T00:23:44.301Z,71.36
2018-04-15T00:26:12.693Z,71.45
2018-04-15T00:28:41.068Z,71.46
2018-04-15T00:31:10.155Z,71.53
2018-04-15T00:33:38.717Z,71.30
2018-04-15T00:36:07.161Z,71.27
2018-04-15T00:38:35.540Z,71.19
2018-04-15T00:41:03.895Z,71.20
2018-04-15T00:43:32.463Z,71.58
2018-04-15T00:46:01.060Z,71.78
2018-04-15T00:48:29.477Z,71.78
2018-04-15T00:50:57.882Z,71.43
2018-04-15T00:53:26.525Z,71.45
2018-04-15T00:55:55.120Z,71.23
2018-04-15T00:58:23.475Z,71.08
2018-04-15T01:00:51.923Z,71.04
2018-04-15T01:03:20.441Z,71.17
2018-04-15T01:05:50.653Z,71.35
2018-04-15T01:08:19.056Z,71.58
2018-04-15T01:10:47.990Z,71.76
2018-04-15T01:13:16.700Z,71.95
2018-04-15T01:15:45.249Z,72.09
2018-04-15T01:18:13.874Z,72.07
2018-04-15T01:20:42.663Z,72.08
2018-04-15T01:23:11.080Z,71.98
2018-04-15T01:25:39.599Z,71.97
2018-04-15T01:28:08.042Z,72.01
2018-04-15T01:30:36.645Z,72.00
2018-04-15T01:33:05.216Z,71.98
2018-04-15T01:35:35.199Z,72.04
2018-04-15T01:38:03.895Z,72.05
2018-04-15T01:40:32.623Z,72.26
2018-04-15T01:43:01.049Z,72.32
2018-04-15T01:45:29.475Z,72.40
2018-04-15T01:47:57.987Z,72.41
2018-04-15T01:50:26.616Z,72.74
2018-04-15T01:52:55.421Z,72.85
2018-04-15T01:55:24.194Z,72.93
2018-04-15T01:57:53.008Z,72.91
2018-04-15T02:00:21.366Z,72.98
2018-04-15T02:02:49.863Z,72.96
2018-04-15T02:05:18.858Z,72.98
2018-04-15T02:07:47.259Z,73.04
2018-04-15T02:10:16.013Z,73.10
2018-04-15T02:12:44.382Z,73.18
2018-04-15T02:15:13.594Z,73.38
2018-04-15T02:17:42.058Z,73.52
2018-04-15T02:20:10.448Z,73.60
2018-04-15T02:22:39.076Z,73.81
2018-04-15T02:25:07.939Z,73.95
2018-04-15T02:27:36.648Z,73.95
2018-04-15T02:30:05.313Z,73.85
2018-04-15T02:32:33.684Z,73.87
2018-04-15T02:35:02.919Z,73.86
2018-04-15T02:37:31.379Z,73.75
2018-04-15T02:40:00.222Z,73.78
2018-04-15T02:42:28.690Z,73.96
2018-04-15T02:44:57.204Z,74.07
2018-04-15T02:47:26.566Z,74.03
2018-04-15T02:49:55.341Z,74.10
2018-04-15T02:52:23.772Z,74.07
2018-04-15T02:54:52.131Z,74.18
2018-04-15T02:57:20.917Z,74.31
2018-04-15T02:59:49.642Z,74.32
2018-04-15T03:02:18.039Z,74.28
2018-04-15T03:04:46.864Z,74.24
2018-04-15T03:07:15.549Z,74.25
2018-04-15T03:09:44.689Z,74.22
2018-04-15T03:12:13.202Z,74.37
2018-04-15T03:14:42.348Z,74.40
2018-04-15T03:17:10.752Z,74.40
2018-04-15T03:19:39.115Z,74.37
2018-04-15T03:22:07.720Z,74.29
2018-04-15T03:24:36.261Z,74.26
2018-04-15T03:27:04.636Z,74.30
2018-04-15T03:29:32.999Z,74.37
2018-04-15T03:32:01.693Z,74.31
2018-04-15T03:34:30.848Z,74.31
2018-04-15T03:36:59.325Z,74.53
2018-04-15T03:39:28.587Z,74.60
2018-04-15T03:41:57.121Z,74.62
2018-04-15T03:44:25.936Z,74.63
2018-04-15T03:46:54.312Z,74.68
2018-04-15T03:49:22.974Z,74.71
2018-04-15T03:51:51.599Z,74.61
2018-04-15T03:54:20.060Z,74.64
2018-04-15T03:56:48.574Z,74.64
2018-04-15T03:59:17.380Z,74.57
2018-04-15T04:01:45.955Z,74.67
2018-04-15T04:04:14.425Z,74.68
2018-04-15T04:06:42.841Z,74.72
2018-04-15T04:09:11.260Z,74.80
2018-04-15T04:11:39.619Z,74.86
2018-04-15T04:14:07.975Z,75.02
2018-04-15T04:16:36.779Z,75.11
2018-04-15T04:19:17.083Z,75.09
2018-04-15T04:21:58.613Z,75.00
2018-04-15T04:24:38.731Z,74.94
2018-04-15T04:27:07.251Z,75.37
2018-04-15T04:29:35.634Z,75.55
2018-04-15T04:32:04.320Z,75.62
2018-04-15T04:34:33.069Z,75.58
2018-04-15T04:37:01.544Z,75.48
2018-04-15T04:39:30.489Z,75.35
2018-04-15T04:41:58.876Z,75.32
2018-04-15T04:44:27.239Z,75.29
2018-04-15T04:46:55.941Z,75.10
2018-04-15T04:49:24.314Z,74.96
2018-04-15T04:51:53.057Z,74.89
2018-04-15T04:54:22.980Z,74.96
2018-04-15T04:56:51.335Z,74.89
2018-04-15T04:59:19.700Z,74.40
2018-04-15T05:01:48.051Z,74.14
2018-04-15T05:04:16.503Z,73.87
2018-04-15T05:06:44.890Z,73.66
2018-04-15T05:09:13.672Z,73.41
2018-04-15T05:11:43.004Z,73.21
2018-04-15T05:14:11.805Z,73.16
2018-04-15T05:16:40.561Z,73.20
2018-04-15T05:19:08.941Z,73.07
2018-04-15T05:21:37.420Z,73.15
2018-04-15T05:24:05.831Z,73.28
2018-04-15T05:26:34.790Z,73.22
2018-04-15T05:29:03.588Z,73.13
2018-04-15T05:31:33.231Z,73.03
2018-04-15T05:34:01.708Z,72.89
2018-04-15T05:36:30.530Z,72.94
2018-04-15T05:38:58.983Z,72.83
2018-04-15T05:41:27.523Z,72.62
2018-04-15T05:43:56.406Z,72.45
2018-04-15T05:46:25.068Z,72.51
2018-04-15T05:48:54.032Z,72.54
2018-04-15T05:51:23.007Z,72.46
2018-04-15T05:53:51.729Z,72.39
2018-04-15T05:56:20.422Z,72.31
2018-04-15T05:58:49.039Z,72.19
2018-04-15T06:01:17.702Z,72.09
2018-04-15T06:03:46.465Z,72.07
2018-04-15T06:06:15.365Z,72.11
2018-04-15T06:08:43.853Z,72.02
2018-04-15T06:11:12.423Z,71.45
2018-04-15T06:13:41.079Z,70.92
2018-04-15T06:16:09.806Z,70.45
2018-04-15T06:18:38.201Z,70.21
2018-04-15T06:21:06.829Z,70.09
2018-04-15T06:23:35.474Z,69.65
2018-04-15T06:26:05.431Z,69.20
2018-04-15T06:28:34.088Z,68.80
2018-04-15T06:31:02.764Z,68.34
2018-04-15T06:33:31.226Z,67.91
2018-04-15T06:35:59.636Z,67.35
2018-04-15T06:38:28.220Z,67.30
2018-04-15T06:40:56.888Z,67.16
2018-04-15T06:43:25.304Z,66.97
2018-04-15T06:45:53.724Z,66.62
2018-04-15T06:48:22.514Z,66.38
2018-04-15T06:50:50.936Z,66.01
2018-04-15T06:53:19.605Z,65.81
2018-04-15T06:55:48.551Z,65.50
2018-04-15T06:58:16.955Z,65.21
2018-04-15T07:00:45.312Z,64.98
2018-04-15T07:03:13.672Z,64.80
2018-04-15T07:05:42.704Z,64.63
2018-04-15T07:08:11.065Z,64.65
2018-04-15T07:10:39.911Z,64.63
2018-04-15T07:13:08.516Z,64.60
2018-04-15T07:15:36.911Z,64.54
2018-04-15T07:18:05.461Z,64.52
2018-04-15T07:20:34.395Z,64.28
2018-04-15T07:23:03.525Z,64.01
2018-04-15T07:25:33.021Z,63.87
2018-04-15T07:28:02.336Z,63.75
2018-04-15T07:30:31.296Z,63.62
2018-04-15T07:32:59.741Z,63.59
2018-04-15T07:35:29.261Z,63.33
2018-04-15T07:37:57.678Z,63.15
2018-04-15T07:40:26.615Z,62.94
2018-04-15T07:42:55.571Z,62.88
2018-04-15T07:45:24.407Z,62.79
2018-04-15T07:47:53.501Z,62.67
2018-04-15T07:50:22.195Z,62.58
2018-04-15T07:52:50.553Z,62.39
2018-04-15T07:55:19.341Z,62.32
2018-04-15T07:57:48.748Z,62.12
2018-04-15T08:00:17.364Z,61.84
2018-04-15T08:02:48.661Z,61.67
2018-04-15T08:05:17.154Z,61.42
2018-04-15T08:07:47.892Z,61.21
2018-04-15T08:10:16.326Z,61.25
2018-04-15T08:12:45.817Z,60.78
2018-04-15T08:15:14.379Z,60.53
2018-04-15T08:17:42.968Z,60.42
2018-04-15T08:20:11.640Z,60.21
2018-04-15T08:22:40.157Z,60.06
2018-04-15T08:25:08.531Z,60.08
2018-04-15T08:27:37.253Z,59.93
2018-04-15T08:30:05.723Z,59.88
2018-04-15T08:32:35.017Z,59.61
2018-04-15T08:35:04.158Z,59.17
2018-04-15T08:37:32.636Z,59.10
2018-04-15T08:40:01.654Z,59.12
2018-04-15T08:42:30.509Z,58.90
2018-04-15T08:45:01.036Z,58.56
2018-04-15T08:47:30.460Z,58.44
2018-04-15T08:49:59.107Z,58.02
2018-04-15T08:52:27.765Z,57.88
2018-04-15T08:54:56.248Z,57.67
2018-04-15T08:57:25.039Z,57.28
2018-04-15T08:59:53.471Z,56.99
2018-04-15T09:02:22.037Z,56.68
2018-04-15T09:04:51.948Z,56.42
2018-04-15T09:07:20.335Z,56.28
2018-04-15T09:09:48.994Z,55.89
2018-04-15T09:12:17.667Z,55.22
2018-04-15T09:14:47.147Z,54.57
2018-04-15T09:17:15.814Z,53.78
2018-04-15T09:19:44.540Z,53.42
2018-04-15T09:22:14.974Z,53.44
2018-04-15T09:24:45.239Z,52.75
2018-04-15T09:27:14.166Z,52.68
2018-04-15T09:29:44.004Z,52.66
2018-04-15T09:32:12.386Z,52.27
2018-04-15T09:34:42.110Z,51.94
2018-04-15T09:37:10.708Z,51.27
2018-04-15T09:39:41.315Z,51.29
2018-04-15T09:42:11.361Z,51.04
2018-04-15T09:44:40.087Z,50.92
2018-04-15T09:47:10.251Z,50.47
2018-04-15T09:49:38.732Z,50.20
2018-04-15T09:52:08.441Z,50.23
2018-04-15T09:54:36.865Z,50.44
2018-04-15T09:57:06.965Z,50.06
2018-04-15T09:59:36.247Z,49.70
2018-04-15T10:02:05.034Z,49.78
2018-04-15T10:04:33.439Z,49.65
2018-04-15T10:07:01.876Z,49.23
2018-04-15T10:09:30.691Z,49.05
2018-04-15T10:11:59.446Z,47.74
2018-04-15T10:14:28.123Z,47.62
2018-04-15T10:16:56.977Z,47.48
2018-04-15T10:19:26.219Z,47.05
2018-04-15T10:21:55.788Z,46.70
2018-04-15T10:24:24.303Z,46.21
2018-04-15T10:26:52.962Z,46.17
2018-04-15T10:29:21.596Z,46.08
2018-04-15T10:31:50.021Z,45.88
2018-04-15T10:34:18.964Z,45.90
2018-04-15T10:36:47.428Z,45.23
2018-04-15T10:39:16.886Z,44.93
2018-04-15T10:41:45.790Z,44.56
2018-04-15T10:44:14.607Z,44.31
2018-04-15T10:46:43.366Z,43.98
2018-04-15T10:49:12.055Z,43.96
2018-04-15T10:51:40.424Z,43.76
2018-04-15T10:54:09.090Z,43.43
2018-04-15T10:56:37.730Z,43.30
2018-04-15T10:59:07.376Z,43.56
2018-04-15T11:01:36.387Z,43.10
2018-04-15T11:04:05.509Z,43.06
2018-04-15T11:06:33.878Z,42.42
2018-04-15T11:09:02.261Z,41.90
2018-04-15T11:11:31.289Z,41.36
2018-04-15T11:13:59.656Z,41.56
2018-04-15T11:16:28.084Z,40.35
2018-04-15T11:18:56.491Z,40.28
2018-04-15T11:21:25.162Z,39.77
2018-04-15T11:23:53.920Z,40.17
2018-04-15T11:26:22.502Z,40.20
2018-04-15T11:28:52.490Z,40.55
2018-04-15T11:31:21.284Z,40.04
2018-04-15T11:33:49.870Z,39.72
2018-04-15T11:36:19.195Z,39.68
2018-04-15T11:38:47.731Z,39.89
2018-04-15T11:41:16.948Z,39.89
2018-04-15T11:43:45.343Z,39.22
2018-04-15T11:46:13.706Z,39.28
2018-04-15T11:48:42.066Z,39.12
2018-04-15T11:51:10.440Z,38.72
2018-04-15T11:53:39.420Z,38.71
2018-04-15T11:56:08.312Z,38.86
2018-04-15T11:58:37.688Z,38.44
2018-04-15T12:01:06.149Z,37.84
2018-04-15T12:03:34.755Z,37.94
2018-04-15T12:06:03.332Z,37.88
2018-04-15T12:08:31.741Z,37.83
2018-04-15T12:11:00.248Z,37.78
2018-04-15T12:13:28.610Z,37.72
2018-04-15T12:15:57.142Z,37.23
2018-04-15T12:18:25.548Z,36.78
2018-04-15T12:20:53.942Z,36.71
2018-04-15T12:23:23.085Z,36.61
2018-04-15T12:25:51.552Z,36.12
2018-04-15T12:28:20.155Z,36.04
2018-04-15T12:30:49.236Z,35.89
2018-04-15T12:33:18.575Z,35.38
2018-04-15T12:35:47.759Z,34.99
2018-04-15T12:38:17.097Z,34.62
2018-04-15T12:40:45.455Z,34.29
2018-04-15T12:43:13.838Z,33.59
2018-04-15T12:45:42.231Z,33.80
2018-04-15T12:48:10.662Z,33.50
2018-04-15T12:50:39.121Z,33.15
2018-04-15T12:53:07.926Z,32.97
2018-04-15T12:55:36.320Z,33.11
2018-04-15T12:58:04.962Z,33.06
2018-04-15T13:00:33.671Z,32.78
2018-04-15T13:03:02.364Z,32.30
2018-04-15T13:05:30.729Z,31.82
2018-04-15T13:07:59.092Z,31.65
2018-04-15T13:10:27.588Z,31.48
2018-04-15T13:12:55.973Z,31.09
2018-04-15T13:15:24.404Z,30.65
2018-04-15T13:17:53.529Z,30.36
2018-04-15T13:20:21.890Z,30.34
2018-04-15T13:22:50.270Z,30.04
2018-04-15T13:25:18.656Z,29.70
2018-04-15T13:27:46.999Z,29.97
2018-04-15T13:30:15.354Z,30.48
2018-04-15T13:32:43.703Z,30.34
2018-04-15T13:35:12.110Z,30.00
2018-04-15T13:37:40.480Z,29.73
2018-04-15T13:40:09.077Z,29.69
2018-04-15T13:42:37.767Z,29.03
2018-04-15T13:45:06.133Z,29.00
2018-04-15T13:47:34.523Z,29.20
2018-04-15T13:50:02.937Z,28.82
2018-04-15T13:52:31.300Z,29.20
2018-04-15T13:54:59.734Z,28.98
2018-04-15T13:57:28.512Z,29.01
2018-04-15T13:59:57.236Z,28.88
2018-04-15T14:02:25.594Z,28.69
2018-04-15T14:04:54.022Z,28.74
2018-04-15T14:07:22.980Z,28.83
2018-04-15T14:09:51.332Z,28.59
2018-04-15T14:12:20.024Z,28.49
2018-04-15T14:14:48.394Z,28.18
2018-04-15T14:17:17.011Z,27.62
2018-04-15T14:19:45.373Z,27.46
2018-04-15T14:22:13.748Z,27.09
2018-04-15T14:24:42.151Z,27.19
2018-04-15T14:27:10.520Z,26.82
2018-04-15T14:29:38.884Z,26.40
2018-04-15T14:32:07.595Z,26.02
2018-04-15T14:34:35.947Z,26.19
2018-04-15T14:37:04.659Z,26.20
2018-04-15T14:39:33.020Z,25.68
2018-04-15T14:42:01.834Z,25.89
2018-04-15T14:44:30.183Z,25.31
2018-04-15T14:46:58.675Z,25.27
2018-04-15T14:49:27.046Z,25.71
2018-04-15T14:51:55.413Z,25.77
2018-04-15T14:54:23.766Z,25.59
2018-04-15T14:56:52.596Z,25.32
2018-04-15T14:59:21.043Z,25.35
2018-04-15T15:01:49.394Z,24.96
2018-04-15T15:04:17.748Z,25.02
2018-04-15T15:06:46.170Z,24.98
2018-04-15T15:09:14.787Z,25.10
2018-04-15T15:11:43.221Z,25.11
2018-04-15T15:14:11.566Z,25.16
2018-04-15T15:16:39.923Z,25.27
2018-04-15T15:19:08.285Z,25.09
2018-04-15T15:21:36.796Z,24.67
2018-04-15T15:24:05.159Z,24.57
2018-04-15T15:26:33.528Z,24.70
2018-04-15T15:29:01.894Z,24.62
2018-04-15T15:31:30.264Z,24.60
2018-04-15T15:33:58.891Z,24.60
2018-04-15T15:36:27.334Z,24.69
2018-04-15T15:38:55.694Z,24.61
2018-04-15T15:41:24.270Z,25.00
2018-04-15T15:43:52.629Z,25.22
2018-04-15T15:46:20.981Z,25.18
2018-04-15T15:48:49.347Z,25.15
2018-04-15T15:51:17.693Z,24.92
2018-04-15T15:53:46.102Z,25.10
2018-04-15T15:56:14.789Z,25.68
2018-04-15T15:58:43.850Z,26.37
2018-04-15T16:01:12.207Z,27.06
2018-04-15T16:03:40.586Z,27.75
2018-04-15T16:06:09.437Z,28.03
2018-04-15T16:08:38.150Z,27.99
2018-04-15T16:11:06.569Z,28.01
2018-04-15T16:13:35.235Z,28.41
2018-04-15T16:16:04.621Z,29.06
2018-04-15T16:18:33.000Z,29.56
2018-04-15T16:21:01.370Z,29.83
2018-04-15T16:23:30.083Z,30.09
2018-04-15T16:25:58.455Z,30.32
2018-04-15T16:28:27.140Z,30.76
2018-04-15T16:30:55.545Z,31.09
2018-04-15T16:33:23.912Z,31.37
2018-04-15T16:35:52.280Z,31.65
2018-04-15T16:38:20.633Z,31.87
2018-04-15T16:40:49.278Z,32.05
2018-04-15T16:43:17.883Z,32.21
2018-04-15T16:45:46.528Z,32.46
2018-04-15T16:48:15.010Z,32.82
2018-04-15T16:50:43.474Z,33.04
2018-04-15T16:53:12.397Z,33.48
2018-04-15T16:55:40.766Z,34.10
2018-04-15T16:58:10.903Z,34.59
2018-04-15T17:00:39.368Z,34.97
2018-04-15T17:03:07.742Z,35.25
2018-04-15T17:05:36.438Z,35.56
2018-04-15T17:08:04.811Z,35.93
2018-04-15T17:10:33.575Z,36.23
2018-04-15T17:13:01.952Z,36.46
2018-04-15T17:15:31.237Z,36.66
2018-04-15T17:17:59.903Z,36.79
2018-04-15T17:20:28.557Z,36.94
2018-04-15T17:22:56.934Z,37.18
2018-04-15T17:25:25.618Z,37.29
2018-04-15T17:27:53.985Z,37.47
2018-04-15T17:30:22.687Z,37.46
2018-04-15T17:32:52.477Z,37.71
2018-04-15T17:35:20.840Z,37.73
2018-04-15T17:37:49.243Z,38.02
2018-04-15T17:40:17.647Z,38.14
2018-04-15T17:42:46.346Z,38.31
2018-04-15T17:45:14.716Z,38.63
2018-04-15T17:47:43.508Z,38.83
2018-04-15T17:50:11.869Z,39.07
2018-04-15T17:52:40.251Z,39.25
2018-04-15T17:55:09.013Z,39.48
2018-04-15T17:57:37.756Z,39.43
2018-04-15T18:00:06.252Z,39.49
2018-04-15T18:02:35.055Z,39.62
2018-04-15T18:05:03.716Z,39.72
2018-04-15T18:07:32.104Z,39.91
2018-04-15T18:10:00.478Z,40.09
2018-04-15T18:12:28.870Z,40.35
2018-04-15T18:14:57.565Z,40.46
2018-04-15T18:17:26.653Z,40.64
2018-04-15T18:19:55.142Z,41.03
2018-04-15T18:22:23.824Z,41.33
2018-04-15T18:24:52.549Z,41.69
2018-04-15T18:27:21.229Z,41.96
2018-04-15T18:29:49.909Z,42.05
2018-04-15T18:32:18.601Z,42.37
2018-04-15T18:34:47.132Z,42.72
2018-04-15T18:37:15.677Z,42.87
2018-04-15T18:39:44.445Z,42.98
2018-04-15T18:42:14.112Z,43.05
2018-04-15T18:44:42.849Z,43.19
2018-04-15T18:47:11.218Z,43.24
2018-04-15T18:49:39.713Z,43.35
2018-04-15T18:52:08.091Z,43.59
2018-04-15T18:54:37.514Z,43.75
2018-04-15T18:57:06.286Z,44.13
2018-04-15T18:59:34.853Z,44.29
2018-04-15T19:02:04.438Z,44.47
2018-04-15T19:04:33.013Z,44.53
2018-04-15T19:07:01.508Z,44.71
2018-04-15T19:09:30.551Z,45.02
2018-04-15T19:11:58.925Z,45.07
2018-04-15T19:14:29.026Z,45.17
2018-04-15T19:16:58.223Z,45.38
2018-04-15T19:19:26.597Z,45.57
2018-04-15T19:21:54.986Z,45.79
2018-04-15T19:24:23.347Z,45.93
2018-04-15T19:26:51.700Z,46.05
2018-04-15T19:29:20.793Z,46.15
2018-04-15T19:31:49.164Z,46.31
2018-04-15T19:34:17.816Z,46.48
2018-04-15T19:36:46.488Z,46.74
2018-04-15T19:39:15.365Z,46.91
2018-04-15T19:41:44.847Z,47.12
2018-04-15T19:44:15.286Z,47.15
2018-04-15T19:46:43.936Z,47.24
2018-04-15T19:49:13.584Z,47.21
2018-04-15T19:51:42.173Z,47.39
2018-04-15T19:54:10.905Z,47.62
2018-04-15T19:56:39.824Z,47.79
2018-04-15T19:59:08.201Z,47.99
2018-04-15T20:01:36.796Z,48.10
2018-04-15T20:04:05.302Z,48.19
2018-04-15T20:06:33.871Z,48.33
2018-04-15T20:09:02.477Z,48.36
2018-04-15T20:11:31.276Z,48.54
2018-04-15T20:14:00.059Z,48.75
2018-04-15T20:16:28.761Z,48.96
2018-04-15T20:18:57.175Z,49.12
2018-04-15T20:21:25.569Z,49.19
2018-04-15T20:23:55.030Z,49.27
2018-04-15T20:26:23.799Z,49.33
2018-04-15T20:28:53.534Z,49.55
2018-04-15T20:31:21.904Z,49.49
2018-04-15T20:33:50.364Z,49.58
2018-04-15T20:36:19.129Z,49.71
2018-04-15T20:38:47.615Z,49.73
2018-04-15T20:41:16.264Z,49.80
2018-04-15T20:43:44.665Z,50.04
2018-04-15T20:46:13.183Z,50.15
2018-04-15T20:48:41.536Z,50.37
2018-04-15T20:51:09.933Z,50.51
2018-04-15T20:53:39.124Z,50.56
2018-04-15T20:56:08.544Z,50.62
2018-04-15T20:58:37.082Z,50.77
2018-04-15T21:01:06.448Z,51.02
2018-04-15T21:03:36.586Z,51.12
2018-04-15T21:06:04.991Z,51.22
2018-04-15T21:08:33.711Z,51.35
2018-04-15T21:11:02.492Z,51.48
2018-04-15T21:13:31.006Z,51.82
2018-04-15T21:15:59.555Z,51.91
2018-04-15T21:18:28.156Z,51.97
2018-04-15T21:20:56.790Z,51.93
2018-04-15T21:23:25.285Z,51.98
2018-04-15T21:25:56.830Z,52.16
2018-04-15T21:28:28.411Z,52.20
2018-04-15T21:30:59.660Z,52.21
2018-04-15T21:33:29.934Z,52.33
2018-04-15T21:35:59.100Z,52.47
2018-04-15T21:38:28.633Z,52.55
2018-04-15T21:40:57.157Z,52.67
2018-04-15T21:43:25.694Z,52.74
2018-04-15T21:45:56.024Z,52.90
2018-04-15T21:48:25.224Z,52.88
2018-04-15T21:50:53.863Z,52.93
2018-04-15T21:53:28.812Z,53.00
2018-04-15T21:56:00.940Z,53.12
2018-04-15T21:58:29.875Z,53.36
2018-04-15T22:00:58.381Z,53.58
2018-04-15T22:03:27.204Z,53.69
2018-04-15T22:05:55.638Z,53.66
2018-04-15T22:08:24.719Z,53.76
2018-04-15T22:10:53.839Z,53.78
2018-04-15T22:13:23.927Z,53.82
2018-04-15T22:15:53.144Z,53.78
2018-04-15T22:18:21.897Z,53.79
2018-04-15T22:20:50.277Z,54.04
2018-04-15T22:23:18.653Z,54.24
2018-04-15T22:25:47.070Z,54.44
2018-04-15T22:28:15.471Z,54.62
2018-04-15T22:30:43.923Z,54.88
2018-04-15T22:33:12.403Z,55.11
2018-04-15T22:35:40.850Z,55.24
2018-04-15T22:38:09.273Z,55.33
2018-04-15T22:40:37.756Z,55.52
2018-04-15T22:43:06.145Z,55.52
2018-04-15T22:45:34.503Z,55.63
2018-04-15T22:48:05.036Z,55.76
2018-04-15T22:50:37.767Z,55.76
2018-04-15T22:53:06.312Z,55.91
2018-04-15T22:55:34.668Z,56.04
2018-04-15T22:58:05.500Z,56.18
2018-04-15T23:00:33.944Z,56.25
2018-04-15T23:03:02.314Z,56.42
2018-04-15T23:05:30.719Z,56.54
2018-04-15T23:07:59.103Z,56.64
2018-04-15T23:10:27.969Z,56.75
2018-04-15T23:12:56.734Z,56.85
2018-04-15T23:15:25.423Z,56.87
2018-04-15T23:17:54.179Z,56.90
2018-04-15T23:20:22.787Z,57.01
2018-04-15T23:22:51.372Z,57.20
2018-04-15T23:25:19.737Z,57.32
2018-04-15T23:27:48.207Z,57.39
2018-04-15T23:30:16.564Z,57.40
2018-04-15T23:32:45.061Z,57.49
2018-04-15T23:35:13.415Z,57.74
2018-04-15T23:37:41.774Z,57.89
2018-04-15T23:40:10.144Z,58.06
2018-04-15T23:42:38.892Z,58.11
2018-04-15T23:45:07.578Z,58.09
2018-04-15T23:47:36.042Z,58.20
2018-04-15T23:50:04.493Z,58.32
2018-04-15T23:52:33.113Z,58.43
2018-04-15T23:55:01.555Z,58.56
2018-04-15T23:57:30.583Z,58.68
2018-04-15T23:59:59.066Z,58.75
